createdAt,value
2022-11-23T00:00:25.370Z,3.20
2022-11-23T00:03:28.461Z,3.19
2022-11-23T00:06:30.240Z,3.16
2022-11-23T00:09:32.103Z,3.18
2022-11-23T00:12:33.841Z,3.17
2022-11-23T00:15:35.549Z,3.18
2022-11-23T00:18:38.615Z,3.16
2022-11-23T00:21:40.269Z,3.17
2022-11-23T00:24:41.966Z,3.18
2022-11-23T00:27:43.663Z,3.18
2022-11-23T00:30:48.385Z,3.18
2022-11-23T00:33:51.964Z,3.19
2022-11-23T00:36:53.621Z,3.17
2022-11-23T00:39:55.279Z,3.17
2022-11-23T00:42:56.887Z,3.16
2022-11-23T00:46:05.858Z,3.18
2022-11-23T00:49:08.908Z,3.18
2022-11-23T00:52:10.569Z,3.16
2022-11-23T00:55:12.257Z,3.21
2022-11-23T00:58:13.928Z,3.22
2022-11-23T01:01:16.025Z,3.22
2022-11-23T01:04:19.071Z,3.23
2022-11-23T01:07:20.842Z,3.25
2022-11-23T01:10:22.481Z,3.23
2022-11-23T01:13:24.206Z,3.25
2022-11-23T01:16:26.683Z,3.27
2022-11-23T01:19:30.164Z,3.27
2022-11-23T01:22:32.056Z,3.31
2022-11-23T01:25:35.770Z,3.31
2022-11-23T01:28:38.105Z,3.30
2022-11-23T01:31:45.900Z,3.35
2022-11-23T01:34:49.633Z,3.36
2022-11-23T01:37:51.282Z,3.35
2022-11-23T01:40:52.974Z,3.33
2022-11-23T01:43:54.781Z,3.30
2022-11-23T01:46:57.774Z,3.31
2022-11-23T01:50:01.011Z,3.33
2022-11-23T01:53:02.734Z,3.33
2022-11-23T01:56:06.157Z,3.34
2022-11-23T01:59:09.406Z,3.36
2022-11-23T02:02:11.177Z,3.33
2022-11-23T02:05:14.844Z,3.33
2022-11-23T02:08:17.247Z,3.36
2022-11-23T02:11:19.075Z,3.36
2022-11-23T02:14:23.536Z,3.39
2022-11-23T02:17:25.705Z,3.35
2022-11-23T02:20:29.123Z,3.36
2022-11-23T02:23:34.403Z,3.35
2022-11-23T02:26:37.795Z,3.33
2022-11-23T02:29:42.524Z,3.27
2022-11-23T02:32:44.364Z,3.28
2022-11-23T02:35:49.411Z,3.19
2022-11-23T02:38:51.594Z,3.24
2022-11-23T02:41:54.777Z,3.26
2022-11-23T02:44:59.505Z,3.22
2022-11-23T02:51:21.051Z,3.20
2022-11-23T02:54:22.694Z,3.25
2022-11-23T02:57:26.184Z,3.25
2022-11-23T03:00:27.922Z,3.28
2022-11-23T03:03:29.693Z,3.28
2022-11-23T03:06:31.366Z,3.31
2022-11-23T03:09:33.287Z,3.32
2022-11-23T03:12:36.669Z,3.31
2022-11-23T03:15:38.606Z,3.34
2022-11-23T03:18:40.315Z,3.34
2022-11-23T03:21:42.046Z,3.33
2022-11-23T03:24:43.738Z,3.37
2022-11-23T03:27:46.831Z,3.36
2022-11-23T03:30:48.497Z,3.35
2022-11-23T03:33:50.196Z,3.39
2022-11-23T03:36:52.108Z,3.37
2022-11-23T03:39:53.813Z,3.41
2022-11-23T03:42:56.888Z,3.29
2022-11-23T03:45:58.668Z,3.32
2022-11-23T03:49:00.354Z,3.26
2022-11-23T03:52:02.151Z,3.34
2022-11-23T03:55:04.159Z,3.30
2022-11-23T03:58:07.381Z,3.18
2022-11-23T04:01:09.246Z,3.19
2022-11-23T04:04:11.101Z,3.13
2022-11-23T04:07:12.904Z,3.21
2022-11-23T04:10:14.768Z,3.17
2022-11-23T04:13:17.853Z,3.20
2022-11-23T04:16:19.601Z,3.19
2022-11-23T04:19:21.532Z,3.22
2022-11-23T04:22:23.175Z,3.25
2022-11-23T04:25:24.951Z,3.21
2022-11-23T04:28:28.200Z,3.19
2022-11-23T04:31:29.881Z,3.18
2022-11-23T04:34:31.617Z,3.20
2022-11-23T04:37:33.341Z,3.24
2022-11-23T04:40:35.165Z,3.22
2022-11-23T04:43:38.214Z,3.21
2022-11-23T04:46:39.901Z,3.25
2022-11-23T04:49:41.559Z,3.26
2022-11-23T04:52:43.298Z,3.28
2022-11-23T04:55:46.257Z,3.23
2022-11-23T04:58:49.383Z,3.24
2022-11-23T05:01:51.067Z,3.23
2022-11-23T05:04:52.793Z,3.24
2022-11-23T05:07:54.926Z,3.26
2022-11-23T05:10:56.648Z,3.27
2022-11-23T05:13:59.768Z,3.25
2022-11-23T05:17:01.499Z,3.23
2022-11-23T05:20:03.308Z,3.25
2022-11-23T05:23:05.154Z,3.26
2022-11-23T05:26:07.030Z,3.23
2022-11-23T05:29:10.092Z,3.21
2022-11-23T05:32:11.935Z,3.22
2022-11-23T05:35:13.632Z,3.24
2022-11-23T05:38:15.434Z,3.26
2022-11-23T05:41:17.278Z,3.25
2022-11-23T05:44:20.337Z,3.33
2022-11-23T05:47:23.074Z,3.27
2022-11-23T05:50:25.760Z,3.22
2022-11-23T05:53:27.435Z,3.25
2022-11-23T05:56:29.213Z,3.25
2022-11-23T05:59:32.410Z,3.29
2022-11-23T06:02:39.612Z,3.29
2022-11-23T06:05:42.567Z,3.29
2022-11-23T06:08:48.922Z,3.31
2022-11-23T06:11:50.859Z,3.33
2022-11-23T06:14:53.988Z,3.31
2022-11-23T06:17:58.616Z,3.27
2022-11-23T06:21:00.797Z,3.33
2022-11-23T06:24:02.534Z,3.28
2022-11-23T06:27:04.277Z,3.31
2022-11-23T06:30:08.836Z,3.34
2022-11-23T06:33:10.781Z,3.30
2022-11-23T06:36:12.517Z,3.30
2022-11-23T06:39:14.243Z,3.27
2022-11-23T06:42:37.771Z,3.31
2022-11-23T06:45:39.214Z,3.26
2022-11-23T06:48:43.032Z,3.26
2022-11-23T06:51:45.188Z,3.34
2022-11-23T06:54:47.210Z,3.27
2022-11-23T06:57:48.912Z,3.28
2022-11-23T07:00:52.012Z,3.23
2022-11-23T07:03:53.768Z,3.30
2022-11-23T07:06:55.486Z,3.33
2022-11-23T07:09:57.794Z,3.33
2022-11-23T07:13:03.149Z,3.33
2022-11-23T07:16:06.630Z,3.28
2022-11-23T07:19:08.561Z,3.31
2022-11-23T07:22:10.323Z,3.36
2022-11-23T07:25:12.027Z,3.39
2022-11-23T07:28:13.773Z,3.41
2022-11-23T07:31:16.828Z,3.43
2022-11-23T07:34:18.601Z,3.47
2022-11-23T07:37:20.347Z,3.46
2022-11-23T07:40:22.055Z,3.48
2022-11-23T07:43:24.772Z,3.47
2022-11-23T07:46:27.825Z,3.48
2022-11-23T07:49:29.941Z,3.46
2022-11-23T07:52:31.783Z,3.52
2022-11-23T07:55:33.602Z,3.42
2022-11-23T07:58:35.287Z,3.42
2022-11-23T08:01:38.374Z,3.52
2022-11-23T08:04:40.040Z,3.50
2022-11-23T08:07:42.213Z,3.53
2022-11-23T08:10:48.407Z,3.56
2022-11-23T08:13:53.255Z,3.59
2022-11-23T08:16:56.423Z,3.63
2022-11-23T08:19:58.159Z,3.65
2022-11-23T08:22:59.888Z,3.67
2022-11-23T08:26:03.079Z,3.64
2022-11-23T08:29:05.135Z,3.69
2022-11-23T08:32:08.242Z,3.69
2022-11-23T08:35:09.966Z,3.74
2022-11-23T08:38:12.025Z,3.75
2022-11-23T08:41:13.731Z,3.71
2022-11-23T08:44:15.525Z,3.80
2022-11-23T08:47:18.562Z,3.72
2022-11-23T08:50:20.896Z,3.78
2022-11-23T08:53:22.554Z,3.82
2022-11-23T08:56:24.299Z,3.87
2022-11-23T08:59:25.949Z,3.83
2022-11-23T09:02:29.035Z,3.84
2022-11-23T09:05:30.825Z,3.90
2022-11-23T09:08:32.910Z,3.91
2022-11-23T09:11:34.665Z,3.96
2022-11-23T09:14:36.347Z,3.97
2022-11-23T09:17:39.444Z,3.98
2022-11-23T09:20:41.640Z,3.99
2022-11-23T09:23:43.315Z,4.02
2022-11-23T09:26:45.302Z,4.06
2022-11-23T09:29:50.080Z,4.12
2022-11-23T09:32:54.963Z,4.11
2022-11-23T09:35:57.268Z,4.15
2022-11-23T09:38:58.994Z,4.13
2022-11-23T09:42:14.491Z,4.14
2022-11-23T09:45:22.646Z,4.12
2022-11-23T09:48:31.153Z,4.13
2022-11-23T09:51:35.750Z,4.16
2022-11-23T09:54:40.031Z,4.18
2022-11-23T09:57:43.354Z,4.20
2022-11-23T10:00:47.657Z,4.24
2022-11-23T10:03:50.802Z,4.26
2022-11-23T10:06:54.688Z,4.11
2022-11-23T10:10:01.602Z,4.20
2022-11-23T10:13:10.701Z,4.17
2022-11-23T10:16:20.812Z,4.15
2022-11-23T10:19:26.965Z,4.04
2022-11-23T10:22:33.454Z,4.08
2022-11-23T10:25:39.578Z,4.14
2022-11-23T10:28:41.570Z,4.21
2022-11-23T10:31:46.095Z,4.26
2022-11-23T10:34:56.864Z,4.30
2022-11-23T10:38:11.229Z,4.21
2022-11-23T10:41:15.521Z,4.29
2022-11-23T10:44:35.408Z,4.31
2022-11-23T10:47:38.925Z,4.34
2022-11-23T10:50:42.084Z,4.25
2022-11-23T10:53:44.178Z,4.25
2022-11-23T10:56:46.816Z,4.21
2022-11-23T10:59:57.635Z,4.10
2022-11-23T11:02:59.560Z,4.14
2022-11-23T11:06:11.082Z,4.19
2022-11-23T11:09:19.889Z,4.23
2022-11-23T11:12:21.729Z,4.29
2022-11-23T11:15:23.509Z,4.35
2022-11-23T11:18:26.464Z,4.42
2022-11-23T11:21:32.818Z,4.42
2022-11-23T11:24:37.563Z,4.48
2022-11-23T11:27:50.775Z,4.57
2022-11-23T11:30:59.558Z,4.60
2022-11-23T11:34:05.978Z,4.60
2022-11-23T11:37:12.043Z,4.70
2022-11-23T11:40:19.191Z,4.58
2022-11-23T11:43:30.181Z,4.53
2022-11-23T11:46:38.493Z,4.54
2022-11-23T11:49:43.547Z,4.65
2022-11-23T11:52:48.904Z,4.60
2022-11-23T11:55:53.261Z,4.65
2022-11-23T11:58:56.880Z,4.64
2022-11-23T12:02:09.488Z,4.67
2022-11-23T12:05:14.192Z,4.60
2022-11-23T12:08:21.300Z,4.62
2022-11-23T12:11:23.075Z,4.62
2022-11-23T12:14:25.622Z,4.55
2022-11-23T12:17:45.221Z,4.41
2022-11-23T12:20:51.899Z,4.49
2022-11-23T12:24:00.265Z,4.60
2022-11-23T12:27:06.759Z,4.67
2022-11-23T12:30:18.999Z,4.74
2022-11-23T12:33:36.448Z,4.88
2022-11-23T12:36:45.232Z,4.92
2022-11-23T12:40:00.453Z,5.01
2022-11-23T12:43:05.272Z,5.03
2022-11-23T12:46:11.319Z,5.07
2022-11-23T12:49:20.839Z,5.06
2022-11-23T12:52:30.045Z,5.13
2022-11-23T12:55:39.008Z,5.09
2022-11-23T12:58:42.838Z,5.11
2022-11-23T13:01:46.760Z,5.08
2022-11-23T13:05:12.551Z,4.96
2022-11-23T13:08:23.754Z,5.10
2022-11-23T13:11:34.590Z,5.07
2022-11-23T13:14:43.189Z,5.09
2022-11-23T13:17:49.610Z,5.12
2022-11-23T13:21:09.608Z,5.22
2022-11-23T13:24:27.952Z,5.08
2022-11-23T13:27:40.740Z,5.06
2022-11-23T13:34:24.254Z,4.86
2022-11-23T13:37:25.973Z,5.08
2022-11-23T13:40:31.884Z,5.03
2022-11-23T13:43:36.635Z,4.93
2022-11-23T13:46:38.607Z,5.04
2022-11-23T13:49:41.691Z,4.95
2022-11-23T13:52:48.942Z,5.10
2022-11-23T13:55:51.895Z,4.99
2022-11-23T13:58:55.784Z,5.03
2022-11-23T14:01:58.461Z,5.10
2022-11-23T14:05:19.429Z,5.07
2022-11-23T14:08:21.515Z,5.13
2022-11-23T14:11:23.762Z,5.12
2022-11-23T14:14:29.138Z,5.10
2022-11-23T14:17:49.550Z,5.14
2022-11-23T14:20:58.115Z,5.07
2022-11-23T14:24:20.936Z,5.14
2022-11-23T14:31:00.302Z,5.20
2022-11-23T14:34:07.532Z,5.24
2022-11-23T14:37:14.455Z,5.25
2022-11-23T14:40:22.110Z,5.26
2022-11-23T14:43:24.508Z,5.27
2022-11-23T14:46:27.702Z,5.27
2022-11-23T14:49:29.703Z,5.27
2022-11-23T14:52:33.226Z,5.24
2022-11-23T14:55:35.061Z,5.26
2022-11-23T14:58:36.847Z,5.29
2022-11-23T15:01:41.626Z,5.35
2022-11-23T15:04:53.926Z,5.28
2022-11-23T15:07:58.693Z,5.32
2022-11-23T15:11:03.044Z,5.28
2022-11-23T15:14:16.559Z,5.29
2022-11-23T15:17:20.772Z,5.28
2022-11-23T15:20:23.587Z,5.22
2022-11-23T15:23:29.893Z,5.17
2022-11-23T15:26:49.216Z,5.18
2022-11-23T15:29:52.397Z,5.07
2022-11-23T15:32:59.594Z,4.99
2022-11-23T15:36:01.835Z,4.96
2022-11-23T15:39:04.364Z,4.96
2022-11-23T15:42:06.581Z,4.84
2022-11-23T15:45:23.143Z,4.83
2022-11-23T15:48:29.043Z,4.86
2022-11-23T15:51:33.537Z,4.81
2022-11-23T15:54:36.122Z,4.82
2022-11-23T15:57:38.897Z,4.73
2022-11-23T16:00:46.940Z,4.68
2022-11-23T16:03:52.582Z,4.67
2022-11-23T16:06:54.533Z,4.62
2022-11-23T16:10:07.990Z,4.51
2022-11-23T16:13:24.545Z,4.46
2022-11-23T16:16:27.222Z,4.44
2022-11-23T16:19:31.583Z,4.34
2022-11-23T16:22:34.479Z,4.43
2022-11-23T16:25:36.370Z,4.23
2022-11-23T16:28:42.714Z,4.06
2022-11-23T16:31:51.668Z,3.93
2022-11-23T16:34:55.592Z,3.93
2022-11-23T16:37:57.744Z,3.73
2022-11-23T16:40:59.829Z,3.90
2022-11-23T16:44:02.278Z,3.86
2022-11-23T16:47:18.146Z,3.86
2022-11-23T16:50:22.374Z,3.80
2022-11-23T16:53:24.452Z,3.81
2022-11-23T16:56:27.723Z,3.70
2022-11-23T16:59:34.136Z,3.67
2022-11-23T17:02:36.516Z,3.74
2022-11-23T17:05:40.660Z,3.83
2022-11-23T17:08:44.270Z,3.86
2022-11-23T17:11:48.109Z,3.81
2022-11-23T17:14:50.680Z,3.70
2022-11-23T17:17:53.041Z,3.66
2022-11-23T17:20:57.127Z,3.62
2022-11-23T17:23:58.936Z,3.48
2022-11-23T17:27:00.805Z,3.27
2022-11-23T17:30:06.606Z,3.36
2022-11-23T17:33:09.567Z,3.40
2022-11-23T17:36:13.261Z,3.43
2022-11-23T17:39:17.971Z,3.33
2022-11-23T17:42:20.459Z,3.35
2022-11-23T17:45:22.422Z,3.36
2022-11-23T17:48:24.918Z,3.42
2022-11-23T17:51:28.444Z,3.40
2022-11-23T17:54:30.465Z,3.24
2022-11-23T17:57:32.341Z,3.19
2022-11-23T18:00:35.965Z,3.10
2022-11-23T18:03:38.438Z,2.97
2022-11-23T18:06:42.036Z,2.92
2022-11-23T18:09:44.427Z,2.83
2022-11-23T18:12:46.660Z,2.48
2022-11-23T18:15:49.129Z,2.48
2022-11-23T18:18:51.320Z,2.58
2022-11-23T18:21:54.550Z,2.34
2022-11-23T18:24:56.644Z,2.50
2022-11-23T18:27:58.891Z,2.50
2022-11-23T18:31:01.491Z,2.39
2022-11-23T18:34:03.777Z,2.25
2022-11-23T18:37:08.138Z,2.27
2022-11-23T18:40:11.181Z,2.26
2022-11-23T18:43:14.234Z,2.39
2022-11-23T18:46:16.873Z,2.38
2022-11-23T18:49:19.089Z,2.44
2022-11-23T18:52:23.273Z,2.38
2022-11-23T18:55:25.773Z,2.37
2022-11-23T18:58:31.940Z,2.05
2022-11-23T19:01:34.637Z,1.57
2022-11-23T19:04:37.109Z,1.73
2022-11-23T19:07:41.205Z,1.83
2022-11-23T19:10:43.847Z,1.95
2022-11-23T19:13:47.468Z,2.03
2022-11-23T19:16:50.331Z,2.13
2022-11-23T19:19:53.209Z,2.16
2022-11-23T19:22:56.784Z,2.18
2022-11-23T19:26:01.652Z,2.28
2022-11-23T19:29:04.140Z,2.39
2022-11-23T19:32:06.415Z,2.33
2022-11-23T19:35:08.956Z,2.41
2022-11-23T19:38:14.800Z,2.52
2022-11-23T19:44:33.722Z,2.36
2022-11-23T19:47:36.883Z,2.21
2022-11-23T19:50:39.699Z,1.89
2022-11-23T19:53:44.192Z,1.79
2022-11-23T19:56:46.415Z,1.76
2022-11-23T19:59:48.493Z,1.81
2022-11-23T20:02:51.531Z,1.78
2022-11-23T20:05:55.693Z,1.77
2022-11-23T20:09:00.628Z,1.79
2022-11-23T20:12:03.169Z,1.74
2022-11-23T20:15:05.769Z,1.89
2022-11-23T20:18:08.047Z,1.90
2022-11-23T20:21:10.865Z,2.08
2022-11-23T20:24:16.275Z,2.12
2022-11-23T20:27:18.807Z,2.17
2022-11-23T20:30:21.338Z,2.20
2022-11-23T20:33:23.862Z,2.21
2022-11-23T20:36:27.124Z,2.31
2022-11-23T20:39:30.339Z,2.37
2022-11-23T20:42:32.873Z,2.37
2022-11-23T20:45:35.330Z,2.41
2022-11-23T20:48:38.244Z,2.45
2022-11-23T20:51:40.715Z,2.45
2022-11-23T20:54:44.286Z,2.51
2022-11-23T20:57:46.380Z,2.45
2022-11-23T21:00:51.499Z,2.51
2022-11-23T21:03:54.528Z,2.47
2022-11-23T21:06:56.548Z,2.45
2022-11-23T21:10:00.552Z,2.46
2022-11-23T21:13:02.378Z,2.44
2022-11-23T21:16:05.484Z,2.50
2022-11-23T21:19:08.295Z,2.44
2022-11-23T21:22:10.871Z,2.42
2022-11-23T21:25:14.006Z,2.48
2022-11-23T21:28:16.094Z,2.47
2022-11-23T21:31:18.203Z,2.40
2022-11-23T21:34:21.315Z,2.37
2022-11-23T21:37:23.014Z,2.28
2022-11-23T21:40:26.089Z,2.35
2022-11-23T21:43:27.903Z,2.30
2022-11-23T21:46:29.628Z,2.40
2022-11-23T21:49:31.340Z,2.38
2022-11-23T21:52:33.003Z,2.45
2022-11-23T21:55:36.109Z,2.26
2022-11-23T21:58:38.449Z,2.25
2022-11-23T22:01:40.384Z,2.21
2022-11-23T22:04:42.226Z,2.35
2022-11-23T22:07:55.091Z,2.36
2022-11-23T22:11:10.565Z,2.36
2022-11-23T22:14:12.895Z,2.21
2022-11-23T22:17:14.903Z,2.18
2022-11-23T22:20:16.764Z,2.11
2022-11-23T22:23:18.569Z,2.07
2022-11-23T22:26:22.213Z,2.05
2022-11-23T22:29:23.951Z,2.03
2022-11-23T22:32:25.652Z,1.97
2022-11-23T22:35:27.590Z,1.93
2022-11-23T22:38:29.816Z,1.96
2022-11-23T22:41:33.769Z,1.93
2022-11-23T22:44:35.650Z,2.06
2022-11-23T22:47:37.525Z,2.15
2022-11-23T22:50:39.353Z,2.18
2022-11-23T22:53:44.245Z,2.26
2022-11-23T22:56:48.027Z,2.18
2022-11-23T22:59:49.826Z,2.21
2022-11-23T23:02:51.629Z,2.18
2022-11-23T23:05:54.252Z,2.17
2022-11-23T23:08:57.068Z,2.21
2022-11-23T23:12:00.372Z,2.12
2022-11-23T23:15:02.150Z,2.13
2022-11-23T23:18:04.010Z,2.21
2022-11-23T23:21:06.758Z,2.17
2022-11-23T23:24:09.103Z,2.23
2022-11-23T23:27:12.654Z,2.15
2022-11-23T23:30:14.398Z,2.27
2022-11-23T23:33:16.147Z,2.34
2022-11-23T23:36:18.988Z,2.26
2022-11-23T23:39:20.744Z,2.31
2022-11-23T23:42:24.213Z,2.28
2022-11-23T23:45:26.198Z,2.38
2022-11-23T23:48:28.639Z,2.34
2022-11-23T23:51:30.394Z,2.35
2022-11-23T23:54:32.792Z,2.34
2022-11-23T23:57:36.324Z,2.32
